Time;durP1;ratioP1;P1;durP2;ratioP2;P2;SDS_P1;SDS_P2;PMS_P1;PMS_P2;Temp;Humidity;BMP_temperature;BMP_pressure;BME280_temperature;BME280_humidity;BME280_pressure;Samples;Min_cycle;Max_cycle;Signal;HPM_P1;HPM_P2
2022/01/15 00:01:40;;;;;;;40.67;19.65;;;6.70;89.80;;;;;;4977907;28;20026;-91
2022/01/15 00:04:05;;;;;;;47.00;20.85;;;6.70;89.80;;;;;;4978419;28;20030;-89
2022/01/15 00:06:31;;;;;;;54.42;21.00;;;6.70;89.80;;;;;;4961368;28;20018;-90
2022/01/15 00:08:57;;;;;;;62.05;21.73;;;6.70;89.80;;;;;;4994333;28;20114;-90
2022/01/15 00:11:23;;;;;;;57.10;20.55;;;6.70;89.80;;;;;;4958901;28;20085;-90
2022/01/15 00:13:56;;;;;;;53.15;19.20;;;6.70;89.80;;;;;;4993018;28;20030;-90
2022/01/15 00:16:44;;;;;;;36.13;18.35;;;6.70;89.80;;;;;;4978718;28;20092;-90
2022/01/15 00:19:12;;;;;;;43.55;19.75;;;6.60;89.80;;;;;;4968065;28;20557;-90
2022/01/15 00:21:38;;;;;;;49.00;21.65;;;6.60;89.90;;;;;;4962245;28;20477;-89
2022/01/15 00:24:04;;;;;;;66.03;20.88;;;6.60;89.90;;;;;;4961835;28;20381;-90
2022/01/15 00:26:30;;;;;;;56.17;22.85;;;6.60;89.90;;;;;;4993633;28;20109;-90
2022/01/15 00:28:56;;;;;;;77.70;24.00;;;6.60;89.90;;;;;;4993790;28;20212;-90
2022/01/15 00:31:22;;;;;;;57.97;21.55;;;6.60;89.80;;;;;;4978074;28;20117;-90
2022/01/15 00:33:48;;;;;;;57.35;22.20;;;6.60;89.80;;;;;;4994173;28;20042;-90
2022/01/15 00:36:15;;;;;;;64.18;21.92;;;6.60;89.80;;;;;;4993448;28;20038;-90
2022/01/15 00:38:41;;;;;;;55.58;22.23;;;6.50;89.80;;;;;;4977883;28;20029;-90
2022/01/15 00:41:07;;;;;;;63.10;23.33;;;6.50;89.80;;;;;;4977701;28;20030;-90
2022/01/15 00:43:33;;;;;;;48.38;20.65;;;6.50;89.80;;;;;;4978337;28;20407;-90
2022/01/15 00:45:58;;;;;;;46.85;19.13;;;6.50;89.80;;;;;;4993747;28;20030;-90
2022/01/15 00:48:25;;;;;;;42.03;18.08;;;6.50;89.80;;;;;;4961548;28;20056;-90
2022/01/15 00:50:51;;;;;;;48.35;19.10;;;6.50;89.90;;;;;;4993577;28;20030;-90
2022/01/15 00:53:16;;;;;;;49.00;20.02;;;6.50;90.00;;;;;;4994169;28;20092;-90
2022/01/15 00:55:42;;;;;;;47.50;18.83;;;6.40;89.90;;;;;;4993804;28;20481;-90
2022/01/15 00:58:08;;;;;;;50.05;18.67;;;6.50;89.90;;;;;;4988334;28;20529;-90
2022/01/15 01:00:35;;;;;;;45.47;19.48;;;6.50;89.90;;;;;;4992040;28;20022;-90
2022/01/15 01:03:00;;;;;;;48.05;19.00;;;6.50;89.90;;;;;;4977088;28;20481;-90
2022/01/15 01:05:26;;;;;;;45.38;18.52;;;6.40;89.80;;;;;;4993276;28;20088;-90
2022/01/15 01:07:52;;;;;;;41.05;17.77;;;6.50;89.80;;;;;;4960978;28;20041;-90
2022/01/15 01:23:41;;;;;;;43.95;16.50;;;6.40;89.50;;;;;;4986724;28;20129;-90
2022/01/15 01:26:12;;;;;;;36.17;16.25;;;6.40;89.60;;;;;;4964222;28;20501;-90
2022/01/15 01:28:43;;;;;;;41.63;16.55;;;6.40;89.60;;;;;;4966513;28;20046;-90
2022/01/15 01:31:22;;;;;;;33.70;14.05;;;6.40;89.60;;;;;;4966306;28;20040;-90
2022/01/15 01:33:53;;;;;;;35.15;15.35;;;6.40;89.60;;;;;;4983317;28;20560;-90
2022/01/15 01:36:37;;;;;;;37.75;14.93;;;6.40;89.60;;;;;;4981079;28;20061;-90
2022/01/15 01:39:09;;;;;;;45.55;16.95;;;6.40;89.60;;;;;;4969676;28;20401;-90
2022/01/15 01:41:37;;;;;;;44.28;17.65;;;6.40;89.50;;;;;;4981690;28;20117;-90
2022/01/15 01:44:04;;;;;;;40.45;15.40;;;6.40;89.50;;;;;;4981003;28;20077;-91
2022/01/15 01:46:41;;;;;;;39.10;15.75;;;6.40;89.60;;;;;;4996200;28;20034;-91
2022/01/15 01:49:12;;;;;;;37.80;16.30;;;6.30;89.60;;;;;;4996657;28;20025;-91
2022/01/15 01:51:41;;;;;;;40.30;16.35;;;6.40;89.70;;;;;;4996465;28;20028;-90
2022/01/15 01:54:09;;;;;;;42.55;16.08;;;6.40;89.70;;;;;;5007157;28;20463;-91
2022/01/15 01:56:35;;;;;;;41.38;16.70;;;6.30;89.60;;;;;;4996265;28;20029;-91
2022/01/15 01:59:02;;;;;;;35.13;14.85;;;6.40;89.60;;;;;;4964707;28;20069;-91
2022/01/15 02:01:28;;;;;;;31.77;13.90;;;6.30;89.60;;;;;;4995985;28;20037;-91
2022/01/15 02:03:54;;;;;;;32.95;13.77;;;6.30;89.60;;;;;;4980607;28;20029;-91
2022/01/15 02:06:20;;;;;;;35.33;15.13;;;6.30;89.60;;;;;;4980346;28;20045;-91
2022/01/15 02:08:48;;;;;;;39.20;16.42;;;6.30;89.60;;;;;;4996977;28;20018;-91
2022/01/15 02:11:14;;;;;;;40.47;15.68;;;6.30;89.40;;;;;;4977329;28;20034;-92
2022/01/15 02:13:41;;;;;;;33.03;14.05;;;6.30;89.30;;;;;;4991569;28;20026;-92
2022/01/15 02:16:08;;;;;;;33.85;13.95;;;6.30;89.40;;;;;;4979806;28;20485;-90
2022/01/15 02:18:35;;;;;;;31.67;13.38;;;6.20;89.40;;;;;;4990525;28;20097;-90
2022/01/15 02:23:36;;;;;;;33.88;14.23;;;6.30;89.30;;;;;;5013973;28;20392;-90
2022/01/15 02:26:07;;;;;;;35.15;14.45;;;6.30;89.30;;;;;;4979523;28;20014;-91
2022/01/15 02:28:35;;;;;;;37.58;13.88;;;6.20;89.20;;;;;;4996253;28;20040;-90
2022/01/15 02:31:16;;;;;;;35.90;14.70;;;6.20;89.20;;;;;;4994709;28;20511;-90
2022/01/15 02:33:44;;;;;;;32.00;13.25;;;6.20;89.10;;;;;;4994909;28;20025;-90
2022/01/15 02:36:13;;;;;;;29.88;13.32;;;6.20;89.20;;;;;;4994546;28;20030;-90
2022/01/15 02:38:39;;;;;;;33.40;13.90;;;6.20;89.30;;;;;;4995260;28;20089;-90
2022/01/15 02:41:05;;;;;;;31.48;13.55;;;6.20;89.30;;;;;;4994875;28;20108;-90
2022/01/15 02:43:34;;;;;;;34.15;13.98;;;6.20;89.80;;;;;;5004073;28;20544;-90
2022/01/15 02:49:05;;;;;;;31.92;13.82;;;6.20;89.20;;;;;;4917960;29;20055;-90
2022/01/15 02:51:33;;;;;;;29.92;12.50;;;6.20;89.10;;;;;;4976530;28;20508;-90
2022/01/15 02:54:00;;;;;;;25.95;11.77;;;6.20;89.10;;;;;;4995198;28;20030;-90
2022/01/15 02:56:35;;;;;;;28.42;12.25;;;6.20;89.10;;;;;;4995355;28;20033;-91
2022/01/15 02:59:04;;;;;;;26.17;12.27;;;6.20;89.10;;;;;;4995469;28;20026;-90
2022/01/15 03:01:30;;;;;;;25.10;10.80;;;6.20;89.00;;;;;;4995182;28;20157;-91
2022/01/15 03:03:56;;;;;;;25.38;11.43;;;6.20;89.00;;;;;;4979133;28;20393;-90
2022/01/15 03:06:22;;;;;;;26.90;11.68;;;6.20;89.00;;;;;;4995152;28;20080;-90
2022/01/15 03:08:50;;;;;;;24.20;10.43;;;6.20;88.90;;;;;;4979481;28;20030;-91
2022/01/15 03:11:16;;;;;;;23.45;10.88;;;6.20;88.90;;;;;;4995521;28;20029;-90
2022/01/15 03:13:43;;;;;;;27.08;11.60;;;6.20;88.90;;;;;;4995553;28;20026;-90
2022/01/15 03:16:14;;;;;;;19.35;9.15;;;6.20;88.90;;;;;;4994982;28;20025;-91
2022/01/15 03:18:40;;;;;;;19.75;9.48;;;6.20;88.70;;;;;;4995349;28;20030;-90
2022/01/15 03:21:05;;;;;;;21.30;9.38;;;6.10;88.30;;;;;;4978826;28;20022;-91
2022/01/15 03:23:31;;;;;;;20.25;9.18;;;6.10;88.50;;;;;;5012255;28;20061;-91
2022/01/15 03:25:57;;;;;;;20.23;10.18;;;6.10;88.60;;;;;;4978948;28;20029;-90
2022/01/15 03:28:23;;;;;;;20.75;9.45;;;6.10;88.70;;;;;;4995500;28;20033;-90
2022/01/15 03:30:48;;;;;;;22.50;9.73;;;6.10;88.60;;;;;;4995056;28;20045;-91
2022/01/15 03:33:14;;;;;;;21.02;10.07;;;6.10;88.60;;;;;;4975249;28;20065;-90
2022/01/15 03:35:40;;;;;;;19.42;9.57;;;6.10;88.60;;;;;;4992920;28;20075;-90
2022/01/15 03:38:07;;;;;;;19.27;9.18;;;6.10;88.60;;;;;;4977837;28;20088;-88
2022/01/15 03:40:33;;;;;;;18.55;9.43;;;6.00;88.60;;;;;;4978149;28;20121;-89
2022/01/15 03:43:00;;;;;;;17.67;8.35;;;6.10;88.60;;;;;;4994018;28;20026;-88
2022/01/15 03:45:25;;;;;;;17.90;8.85;;;6.10;88.70;;;;;;4994076;28;20153;-88
2022/01/15 03:47:52;;;;;;;18.52;8.63;;;6.10;88.70;;;;;;4994059;28;20034;-88
2022/01/15 03:50:18;;;;;;;16.10;8.35;;;6.10;88.60;;;;;;4978079;28;20041;-88
2022/01/15 03:52:45;;;;;;;20.48;9.80;;;6.10;88.60;;;;;;4958404;28;20435;-88
2022/01/15 03:55:12;;;;;;;17.23;8.68;;;6.00;88.40;;;;;;4978023;28;20033;-88
2022/01/15 03:57:39;;;;;;;20.20;8.90;;;6.00;88.40;;;;;;5011695;28;20029;-88
2022/01/15 04:00:08;;;;;;;16.52;8.35;;;6.00;88.40;;;;;;4977954;28;20029;-88
2022/01/15 04:02:33;;;;;;;18.52;8.80;;;6.00;88.40;;;;;;4993639;28;20489;-88
2022/01/15 04:04:59;;;;;;;20.15;9.45;;;5.90;88.30;;;;;;4977532;28;20018;-88
2022/01/15 04:07:25;;;;;;;17.15;9.07;;;5.90;88.40;;;;;;4993846;28;20037;-88
2022/01/15 04:09:50;;;;;;;19.38;10.13;;;5.90;88.50;;;;;;4961674;28;20121;-89
2022/01/15 04:12:16;;;;;;;21.00;9.07;;;5.90;88.50;;;;;;4977445;28;20033;-88
2022/01/15 04:14:41;;;;;;;18.95;9.63;;;5.90;88.40;;;;;;5011243;28;20022;-89
2022/01/15 04:17:07;;;;;;;21.35;11.05;;;6.00;88.50;;;;;;4960927;28;20061;-89
2022/01/15 04:19:35;;;;;;;20.27;11.15;;;5.90;88.40;;;;;;4977395;28;20149;-88
2022/01/15 04:22:00;;;;;;;24.25;11.68;;;5.90;88.50;;;;;;4993370;28;20018;-88
2022/01/15 04:24:26;;;;;;;21.38;11.52;;;5.90;88.50;;;;;;4993261;28;20104;-88
2022/01/15 04:26:52;;;;;;;21.95;11.70;;;6.00;88.50;;;;;;4960991;28;20831;-88
2022/01/15 04:29:18;;;;;;;23.52;12.45;;;6.00;88.50;;;;;;4977728;28;20396;-87
2022/01/15 04:31:51;;;;;;;21.70;11.52;;;6.00;88.50;;;;;;4977091;28;20161;-88
2022/01/15 04:34:25;;;;;;;21.83;12.02;;;6.00;88.50;;;;;;4994765;28;20026;-88
2022/01/15 04:36:52;;;;;;;19.60;10.13;;;6.00;88.60;;;;;;4993757;28;20037;-89
2022/01/15 04:39:18;;;;;;;20.73;10.77;;;6.00;88.50;;;;;;5013260;28;20034;-88
2022/01/15 04:41:44;;;;;;;20.42;12.05;;;5.90;88.50;;;;;;4993493;28;20116;-88
2022/01/15 04:44:10;;;;;;;19.42;10.52;;;5.90;88.50;;;;;;5009769;28;20172;-88
2022/01/15 04:46:37;;;;;;;19.50;9.98;;;6.00;88.60;;;;;;4979141;28;20030;-88
2022/01/15 04:49:04;;;;;;;22.13;11.63;;;5.90;88.60;;;;;;4997170;28;20037;-88
2022/01/15 04:51:29;;;;;;;21.75;11.23;;;5.90;88.50;;;;;;4997259;28;20026;-89
2022/01/15 04:53:55;;;;;;;22.08;12.60;;;5.90;88.50;;;;;;4981117;28;20501;-88
2022/01/15 04:56:21;;;;;;;23.98;12.68;;;5.90;88.50;;;;;;4964599;28;20029;-88
2022/01/15 04:58:47;;;;;;;22.15;12.68;;;5.90;88.60;;;;;;4997146;28;20400;-88
2022/01/15 05:01:12;;;;;;;23.45;12.63;;;5.80;88.60;;;;;;4980993;28;20038;-88
2022/01/15 05:03:38;;;;;;;25.13;12.48;;;5.80;88.70;;;;;;4980976;28;20061;-89
2022/01/15 05:06:04;;;;;;;26.83;13.93;;;5.80;88.80;;;;;;4980482;28;20018;-89
2022/01/15 05:08:29;;;;;;;25.98;13.10;;;5.90;88.80;;;;;;4980845;28;20528;-88
2022/01/15 05:10:59;;;;;;;24.75;13.60;;;5.90;88.90;;;;;;4980315;28;20025;-88
2022/01/15 05:13:53;;;;;;;27.98;14.05;;;5.90;88.90;;;;;;4958390;28;20429;-88
2022/01/15 05:16:19;;;;;;;28.20;14.90;;;5.90;88.90;;;;;;4963017;28;20125;-89
2022/01/15 05:18:46;;;;;;;29.15;15.70;;;5.90;88.80;;;;;;4974013;28;20427;-88
2022/01/15 05:21:12;;;;;;;28.65;13.75;;;5.90;88.80;;;;;;4963978;28;20038;-89
2022/01/15 05:23:37;;;;;;;29.90;14.70;;;5.90;88.80;;;;;;4963749;28;20058;-88
2022/01/15 05:26:03;;;;;;;31.55;13.90;;;5.90;88.90;;;;;;4962471;28;20031;-88
2022/01/15 05:28:29;;;;;;;28.90;15.20;;;5.80;88.90;;;;;;4980916;28;20030;-88
2022/01/15 05:30:55;;;;;;;26.75;14.00;;;5.80;89.00;;;;;;4980070;28;20129;-88
2022/01/15 05:33:20;;;;;;;30.05;14.82;;;5.80;89.10;;;;;;4980112;28;20037;-88
2022/01/15 05:35:46;;;;;;;28.20;14.85;;;5.80;89.10;;;;;;4980135;28;20049;-88
2022/01/15 05:38:12;;;;;;;24.40;13.50;;;5.80;89.00;;;;;;4980444;28;20068;-88
2022/01/15 05:40:38;;;;;;;29.08;13.18;;;5.80;89.00;;;;;;4996416;28;20026;-88
2022/01/15 05:43:04;;;;;;;24.92;12.70;;;5.80;89.00;;;;;;4996090;28;20026;-88
2022/01/15 05:45:29;;;;;;;28.30;13.00;;;5.90;89.00;;;;;;4980182;28;20034;-91
2022/01/15 05:47:55;;;;;;;23.27;12.70;;;5.90;89.00;;;;;;4979929;28;20539;-90
2022/01/15 05:50:21;;;;;;;22.38;12.10;;;5.90;89.00;;;;;;4996820;28;20477;-89
2022/01/15 05:52:47;;;;;;;28.23;13.40;;;5.90;89.00;;;;;;4980875;28;20065;-90
2022/01/15 05:55:13;;;;;;;41.83;14.23;;;5.90;89.00;;;;;;4996589;28;20033;-90
2022/01/15 05:57:39;;;;;;;35.17;13.32;;;5.90;88.90;;;;;;4996256;28;20022;-90
2022/01/15 06:00:07;;;;;;;29.52;12.15;;;5.80;88.90;;;;;;4996612;28;20030;-90
2022/01/15 06:02:33;;;;;;;35.95;13.18;;;5.80;89.00;;;;;;5006187;28;20105;-91
2022/01/15 06:04:59;;;;;;;30.33;14.73;;;5.80;89.10;;;;;;4996878;28;20065;-91
2022/01/15 06:07:24;;;;;;;39.90;14.43;;;5.80;89.10;;;;;;4996661;28;20030;-91
2022/01/15 06:09:50;;;;;;;29.55;12.55;;;5.80;89.10;;;;;;4980416;28;20041;-90
2022/01/15 06:12:16;;;;;;;31.30;12.45;;;5.80;89.10;;;;;;4996559;28;20034;-89
2022/01/15 06:14:41;;;;;;;23.73;12.05;;;5.70;89.00;;;;;;4996672;28;20392;-90
2022/01/15 06:17:08;;;;;;;24.65;11.35;;;5.70;89.00;;;;;;4979552;28;20109;-90
2022/01/15 06:19:37;;;;;;;30.15;12.75;;;5.70;89.00;;;;;;4996139;28;20037;-90
2022/01/15 06:22:04;;;;;;;27.85;12.27;;;5.70;89.10;;;;;;4996677;28;20033;-90
2022/01/15 06:24:30;;;;;;;24.73;12.32;;;5.70;89.20;;;;;;5000987;28;20029;-90
2022/01/15 06:26:56;;;;;;;48.80;13.80;;;5.70;89.30;;;;;;4983675;28;20115;-91
2022/01/15 06:29:23;;;;;;;29.35;12.20;;;5.80;89.30;;;;;;4962468;28;20030;-91
2022/01/15 06:31:48;;;;;;;25.10;11.88;;;5.80;89.20;;;;;;4995133;28;20030;-91
2022/01/15 06:34:14;;;;;;;49.08;13.48;;;5.70;89.30;;;;;;4979212;28;20040;-91
2022/01/15 06:36:40;;;;;;;28.95;12.60;;;5.70;89.20;;;;;;4962746;28;20034;-92
2022/01/15 06:39:05;;;;;;;27.23;12.70;;;5.60;89.30;;;;;;4996351;28;20026;-91
2022/01/15 06:41:31;;;;;;;28.00;13.02;;;5.60;89.40;;;;;;4976672;28;20022;-91
2022/01/15 06:43:57;;;;;;;29.25;12.35;;;5.60;89.50;;;;;;4994783;28;20022;-91
2022/01/15 06:46:23;;;;;;;25.05;11.85;;;5.60;89.50;;;;;;4995082;28;20080;-91
2022/01/15 06:48:48;;;;;;;27.50;11.93;;;5.60;89.60;;;;;;4980083;28;20034;-91
2022/01/15 06:51:14;;;;;;;30.13;12.00;;;5.60;89.70;;;;;;4961323;28;20039;-91
2022/01/15 06:53:40;;;;;;;30.27;12.18;;;5.60;89.70;;;;;;4977053;28;20493;-91
2022/01/15 06:56:06;;;;;;;28.00;12.32;;;5.60;89.80;;;;;;4988874;28;20045;-91
2022/01/15 06:58:32;;;;;;;29.40;12.05;;;5.60;89.80;;;;;;4979349;28;20057;-91
2022/01/15 07:00:58;;;;;;;27.00;12.48;;;5.60;89.80;;;;;;5012998;28;20018;-90
2022/01/15 07:03:23;;;;;;;44.15;13.38;;;5.60;89.90;;;;;;4979876;28;20029;-90
2022/01/15 07:05:49;;;;;;;54.75;13.30;;;5.60;89.90;;;;;;4979373;28;20049;-90
2022/01/15 07:08:15;;;;;;;59.65;14.70;;;5.60;89.80;;;;;;4995201;28;20034;-90
2022/01/15 07:10:41;;;;;;;54.78;15.07;;;5.60;89.80;;;;;;4995152;28;20042;-90
2022/01/15 07:13:07;;;;;;;44.05;13.63;;;5.60;89.80;;;;;;4979072;28;20030;-90
2022/01/15 07:15:34;;;;;;;40.75;13.07;;;5.60;90.00;;;;;;4978844;28;20058;-90
2022/01/15 07:17:59;;;;;;;35.00;13.60;;;5.60;90.00;;;;;;4978173;28;20580;-90
2022/01/15 07:20:26;;;;;;;39.90;13.25;;;5.60;90.00;;;;;;4995210;28;20117;-90
2022/01/15 07:22:51;;;;;;;40.53;14.48;;;5.60;90.00;;;;;;4979175;28;20504;-90
2022/01/15 07:25:17;;;;;;;41.28;14.70;;;5.60;90.00;;;;;;4978966;28;20041;-90
2022/01/15 07:27:43;;;;;;;41.40;15.15;;;5.60;90.10;;;;;;4978901;28;20034;-91
2022/01/15 07:30:10;;;;;;;52.33;17.00;;;5.60;90.10;;;;;;4981180;28;20022;-91
2022/01/15 07:32:37;;;;;;;36.75;15.38;;;5.60;90.10;;;;;;4978635;28;20065;-91
2022/01/15 07:35:03;;;;;;;43.97;16.60;;;5.60;90.10;;;;;;4963339;28;20027;-90
2022/01/15 07:37:30;;;;;;;42.97;15.80;;;5.60;90.10;;;;;;4971610;28;20030;-91
2022/01/15 07:39:56;;;;;;;35.35;16.35;;;5.70;90.10;;;;;;4994388;28;20037;-91
2022/01/15 07:42:22;;;;;;;48.28;16.67;;;5.70;90.10;;;;;;4962723;28;20040;-90
2022/01/15 07:44:48;;;;;;;56.83;18.00;;;5.70;90.10;;;;;;4975870;28;20026;-91
2022/01/15 07:47:13;;;;;;;54.65;18.67;;;5.70;90.10;;;;;;4974739;28;20026;-90
2022/01/15 07:49:39;;;;;;;60.08;18.33;;;5.70;90.10;;;;;;4959175;28;20022;-91
2022/01/15 07:52:05;;;;;;;46.25;17.10;;;5.60;90.10;;;;;;4975518;28;20409;-91
2022/01/15 07:54:31;;;;;;;59.47;17.90;;;5.60;90.10;;;;;;4994791;28;20087;-91
2022/01/15 07:56:58;;;;;;;45.45;17.83;;;5.70;90.40;;;;;;4978188;28;20441;-91
2022/01/15 07:59:25;;;;;;;58.80;18.25;;;5.60;90.10;;;;;;4978494;28;20068;-91
2022/01/15 08:01:51;;;;;;;65.50;20.45;;;5.60;90.10;;;;;;5011856;28;20022;-90
2022/01/15 08:04:17;;;;;;;78.90;22.13;;;5.60;90.10;;;;;;4994632;28;20034;-91
2022/01/15 08:06:42;;;;;;;48.00;21.92;;;5.60;90.20;;;;;;4994693;28;20115;-90
2022/01/15 08:09:08;;;;;;;61.78;22.75;;;5.60;90.20;;;;;;4978815;28;20041;-90
2022/01/15 08:11:35;;;;;;;64.90;23.17;;;5.60;90.20;;;;;;4977361;28;20022;-90
2022/01/15 08:14:00;;;;;;;60.55;21.50;;;5.60;90.20;;;;;;4977549;28;20113;-90
2022/01/15 08:16:26;;;;;;;70.03;22.38;;;5.50;90.20;;;;;;4977813;28;20339;-91
2022/01/15 08:18:52;;;;;;;74.35;23.90;;;5.50;90.20;;;;;;4961813;28;20065;-91
2022/01/15 08:21:18;;;;;;;74.82;22.58;;;5.50;90.20;;;;;;4995379;28;20034;-90
2022/01/15 08:23:43;;;;;;;53.58;21.00;;;5.50;90.30;;;;;;4983992;28;20065;-91
2022/01/15 08:26:09;;;;;;;47.90;20.65;;;5.50;90.30;;;;;;4984410;28;20030;-91
2022/01/15 08:28:37;;;;;;;56.47;22.05;;;5.50;90.30;;;;;;4988792;28;20028;-91
2022/01/15 08:31:04;;;;;;;52.05;21.67;;;5.50;90.30;;;;;;5004400;28;20036;-90
2022/01/15 08:33:31;;;;;;;56.70;23.20;;;5.50;90.30;;;;;;4990205;28;20061;-91
2022/01/15 08:35:57;;;;;;;67.25;21.95;;;5.50;90.30;;;;;;4984587;28;20512;-91
2022/01/15 08:38:23;;;;;;;64.88;22.70;;;5.50;90.30;;;;;;4968190;28;20045;-91
2022/01/15 08:40:49;;;;;;;52.60;23.77;;;5.50;90.30;;;;;;5028280;28;20547;-91
2022/01/15 08:43:15;;;;;;;76.40;24.65;;;5.60;90.30;;;;;;5022513;28;20065;-91
2022/01/15 08:45:42;;;;;;;78.70;25.27;;;5.60;90.30;;;;;;5000629;28;20045;-90
2022/01/15 08:48:08;;;;;;;58.22;22.92;;;5.60;90.30;;;;;;4993582;28;20080;-91
2022/01/15 08:50:34;;;;;;;124.97;26.25;;;5.60;90.30;;;;;;4999343;28;20105;-91
2022/01/15 08:53:01;;;;;;;51.15;22.90;;;5.60;90.30;;;;;;4980858;28;20030;-91
2022/01/15 08:55:29;;;;;;;69.93;25.10;;;5.60;90.30;;;;;;4984351;28;20493;-91
2022/01/15 08:57:55;;;;;;;69.00;27.27;;;5.60;90.40;;;;;;4984660;28;20065;-91
2022/01/15 09:00:21;;;;;;;71.25;24.35;;;5.60;90.30;;;;;;4984486;28;20125;-91
2022/01/15 09:02:48;;;;;;;81.75;26.35;;;5.60;90.30;;;;;;5000627;28;20034;-91
2022/01/15 09:05:15;;;;;;;73.55;24.70;;;5.60;90.30;;;;;;4984583;28;20034;-91
2022/01/15 09:07:41;;;;;;;81.75;24.10;;;5.60;90.30;;;;;;5018036;28;20022;-91
2022/01/15 09:10:08;;;;;;;98.15;24.10;;;5.60;90.40;;;;;;4984280;28;20034;-91
2022/01/15 09:12:34;;;;;;;72.10;23.92;;;5.70;90.40;;;;;;5000135;28;20034;-91
2022/01/15 09:15:00;;;;;;;71.97;24.17;;;5.60;90.40;;;;;;5000182;28;20026;-91
2022/01/15 09:17:27;;;;;;;62.58;24.15;;;5.70;90.40;;;;;;5005923;28;20046;-91
2022/01/15 09:19:53;;;;;;;73.75;25.45;;;5.70;90.40;;;;;;4980859;28;20043;-91
2022/01/15 09:22:20;;;;;;;84.43;25.70;;;5.70;90.40;;;;;;4980872;28;20109;-91
2022/01/15 09:24:46;;;;;;;60.45;25.23;;;5.70;90.40;;;;;;4993251;28;20026;-90
2022/01/15 09:30:13;;;;;;;72.53;22.60;;;5.70;90.40;;;;;;5018174;28;20068;-91
2022/01/15 09:32:40;;;;;;;58.15;23.13;;;5.60;90.50;;;;;;4972161;28;20037;-91
2022/01/15 09:35:06;;;;;;;65.40;21.67;;;5.70;90.40;;;;;;4995709;28;20482;-90
2022/01/15 09:37:32;;;;;;;67.15;22.70;;;5.60;90.40;;;;;;4981360;28;20045;-91
2022/01/15 09:39:58;;;;;;;47.65;20.48;;;5.60;90.40;;;;;;4994949;28;20037;-91
2022/01/15 09:42:25;;;;;;;54.85;21.88;;;5.70;90.40;;;;;;4996831;28;20026;-91
2022/01/15 09:44:53;;;;;;;63.45;21.05;;;5.60;90.40;;;;;;4997501;28;20025;-89
2022/01/15 09:47:21;;;;;;;70.70;21.60;;;5.60;90.40;;;;;;4996215;28;20477;-89
2022/01/15 09:49:48;;;;;;;73.40;22.00;;;5.60;90.40;;;;;;5014501;28;20052;-90
2022/01/15 09:52:15;;;;;;;59.92;20.90;;;5.70;90.40;;;;;;4996733;28;20026;-90
2022/01/15 09:54:41;;;;;;;57.60;21.20;;;5.70;90.40;;;;;;4980568;28;20033;-90
2022/01/15 09:57:07;;;;;;;68.13;21.70;;;5.70;90.40;;;;;;4991986;28;20026;-90
2022/01/15 09:59:32;;;;;;;56.47;21.63;;;5.70;90.40;;;;;;4997584;28;20038;-90
2022/01/15 10:02:02;;;;;;;100.55;24.15;;;5.80;90.40;;;;;;4982992;28;20506;-90
2022/01/15 10:04:32;;;;;;;53.78;21.92;;;5.70;90.40;;;;;;4992546;28;20025;-90
2022/01/15 10:07:15;;;;;;;67.78;22.10;;;5.70;90.40;;;;;;4985752;28;20022;-90
2022/01/15 10:09:45;;;;;;;67.07;21.45;;;5.80;90.40;;;;;;5013708;28;20061;-90
2022/01/15 10:12:22;;;;;;;61.60;21.60;;;5.70;90.40;;;;;;4996070;28;20377;-91
2022/01/15 10:14:48;;;;;;;61.20;21.63;;;5.70;90.40;;;;;;4981531;28;20065;-90
2022/01/15 10:17:25;;;;;;;64.47;21.80;;;5.70;90.40;;;;;;4995763;28;20070;-90
2022/01/15 10:19:52;;;;;;;62.78;22.42;;;5.70;90.50;;;;;;5012621;28;20042;-90
2022/01/15 10:22:23;;;;;;;64.30;22.40;;;5.70;90.50;;;;;;4996170;28;20025;-90
2022/01/15 10:24:57;;;;;;;65.70;22.67;;;5.70;90.40;;;;;;5016843;28;20034;-90
2022/01/15 10:27:35;;;;;;;47.63;23.40;;;5.80;90.50;;;;;;5004134;28;20038;-90
2022/01/15 10:30:09;;;;;;;59.67;22.83;;;5.80;90.50;;;;;;4995447;28;20029;-91
2022/01/15 10:32:37;;;;;;;79.53;24.52;;;5.80;90.60;;;;;;4995697;28;20099;-91
2022/01/15 10:35:15;;;;;;;60.30;22.98;;;5.80;90.50;;;;;;5010729;28;20097;-91
2022/01/15 10:37:49;;;;;;;64.60;21.42;;;5.80;90.50;;;;;;4979524;28;20027;-92
2022/01/15 10:40:15;;;;;;;41.00;20.23;;;5.80;90.50;;;;;;4995204;28;20038;-91
2022/01/15 10:42:41;;;;;;;56.42;20.88;;;5.80;90.50;;;;;;4960412;28;20058;-91
2022/01/15 10:45:12;;;;;;;59.30;20.98;;;5.80;90.50;;;;;;4992856;28;20041;-91
2022/01/15 10:47:48;;;;;;;63.22;20.63;;;5.80;90.50;;;;;;5008388;28;20142;-91
2022/01/15 10:50:27;;;;;;;61.45;20.02;;;5.80;90.50;;;;;;4966649;28;20084;-91
2022/01/15 10:52:54;;;;;;;49.28;18.05;;;5.80;90.40;;;;;;5003787;28;20112;-91
2022/01/15 10:55:26;;;;;;;43.15;17.20;;;5.80;90.40;;;;;;4984600;28;20603;-91
2022/01/15 10:57:57;;;;;;;39.63;19.30;;;5.80;90.50;;;;;;4995271;28;20092;-92
2022/01/15 11:00:36;;;;;;;49.60;19.65;;;5.80;90.50;;;;;;4995756;28;20030;-92
2022/01/15 11:03:05;;;;;;;47.92;20.52;;;5.80;90.40;;;;;;5019402;28;20557;-91
2022/01/15 11:05:42;;;;;;;42.35;19.55;;;5.80;90.40;;;;;;4996377;28;20095;-91
2022/01/15 11:08:27;;;;;;;60.78;20.13;;;5.80;90.40;;;;;;4999669;28;20511;-91
2022/01/15 11:11:00;;;;;;;62.78;21.10;;;5.80;90.40;;;;;;4985844;28;20045;-91
2022/01/15 11:13:33;;;;;;;51.58;21.90;;;5.80;90.40;;;;;;5007458;28;20069;-88
2022/01/15 11:16:05;;;;;;;46.25;20.23;;;5.80;90.40;;;;;;5010613;28;20030;-89
2022/01/15 11:18:37;;;;;;;53.53;21.92;;;5.80;90.40;;;;;;4993542;28;20104;-89
2022/01/15 11:21:05;;;;;;;45.42;22.48;;;5.80;90.40;;;;;;5006400;28;20571;-88
2022/01/15 11:23:32;;;;;;;58.40;22.60;;;5.80;90.40;;;;;;4994469;28;20022;-89
2022/01/15 11:26:01;;;;;;;60.33;23.13;;;5.80;90.50;;;;;;4993599;28;20484;-88
2022/01/15 11:28:30;;;;;;;52.38;22.67;;;5.80;90.50;;;;;;5008675;28;20121;-88
2022/01/15 11:30:58;;;;;;;68.70;24.83;;;5.80;90.50;;;;;;4987797;28;20022;-88
2022/01/15 11:33:36;;;;;;;52.80;22.20;;;5.80;90.50;;;;;;4998375;28;20075;-88
2022/01/15 11:36:04;;;;;;;53.78;22.98;;;5.80;90.50;;;;;;4994648;28;20469;-88
2022/01/15 11:38:41;;;;;;;62.50;23.05;;;5.80;90.50;;;;;;4994697;28;20030;-88
2022/01/15 11:41:26;;;;;;;55.33;23.27;;;5.80;90.50;;;;;;4994512;28;20081;-88
2022/01/15 11:43:53;;;;;;;50.42;21.20;;;5.80;90.50;;;;;;4991662;28;20029;-88
2022/01/15 11:46:30;;;;;;;43.30;20.08;;;5.80;90.40;;;;;;4992367;28;20615;-89
2022/01/15 11:49:32;;;;;;;71.53;20.92;;;5.80;90.40;;;;;;4995309;28;20017;-88
2022/01/15 11:51:57;;;;;;;42.58;19.10;;;5.80;90.30;;;;;;5006014;28;20045;-92
2022/01/15 11:54:24;;;;;;;40.55;18.50;;;5.80;90.30;;;;;;4994818;28;20092;-92
2022/01/15 11:56:49;;;;;;;49.53;19.70;;;5.80;90.30;;;;;;4975633;28;20034;-92
2022/01/15 11:59:27;;;;;;;45.83;20.98;;;5.80;90.30;;;;;;4976987;28;20030;-91
2022/01/15 12:01:57;;;;;;;47.60;20.70;;;5.80;90.30;;;;;;4989360;28;20033;-91
2022/01/15 12:04:23;;;;;;;51.03;20.67;;;5.80;90.30;;;;;;4991100;28;20061;-91
2022/01/15 12:07:01;;;;;;;47.58;20.33;;;5.80;90.30;;;;;;4991231;28;20025;-92
2022/01/15 12:09:41;;;;;;;50.63;20.77;;;5.80;90.30;;;;;;5009421;28;20036;-92
2022/01/15 12:12:20;;;;;;;83.70;21.48;;;5.70;90.30;;;;;;5009316;28;20060;-92
2022/01/15 12:15:00;;;;;;;54.63;21.67;;;5.70;90.30;;;;;;4992883;28;20415;-91
2022/01/15 12:17:31;;;;;;;58.88;22.45;;;5.70;90.30;;;;;;4985395;28;20457;-92
2022/01/15 12:20:17;;;;;;;95.00;21.58;;;5.70;90.40;;;;;;4988174;28;20058;-91
2022/01/15 12:22:48;;;;;;;68.47;21.35;;;5.60;90.30;;;;;;4983338;28;20030;-92
2022/01/15 12:25:17;;;;;;;59.97;21.52;;;5.60;90.30;;;;;;4987726;28;20113;-92
2022/01/15 12:28:04;;;;;;;71.05;21.80;;;5.60;90.20;;;;;;4992402;28;20018;-92
2022/01/15 12:30:31;;;;;;;86.45;21.15;;;5.70;90.20;;;;;;5007821;28;20037;-91
2022/01/15 12:33:02;;;;;;;69.13;21.98;;;5.70;90.20;;;;;;4996689;28;20030;-92
2022/01/15 12:35:33;;;;;;;50.53;19.13;;;5.70;90.10;;;;;;4989235;28;20301;-92
2022/01/15 12:38:16;;;;;;;70.72;19.55;;;5.60;90.10;;;;;;4992168;28;20030;-92
2022/01/15 12:40:48;;;;;;;48.55;20.17;;;5.60;90.10;;;;;;4993658;28;20026;-92
2022/01/15 12:43:18;;;;;;;59.35;18.35;;;5.70;90.20;;;;;;4999606;28;20026;-92
2022/01/15 12:45:47;;;;;;;105.35;20.13;;;5.60;90.00;;;;;;5003690;28;20107;-92
2022/01/15 12:48:22;;;;;;;67.43;20.05;;;5.60;90.00;;;;;;4993643;28;20422;-91
2022/01/15 12:50:57;;;;;;;41.00;20.70;;;5.60;90.00;;;;;;5011750;28;20041;-91
2022/01/15 12:53:25;;;;;;;44.00;20.33;;;5.60;89.80;;;;;;4993985;28;20118;-91
2022/01/15 12:55:52;;;;;;;47.40;19.20;;;5.50;89.60;;;;;;4989046;28;20022;-92
2022/01/15 12:58:24;;;;;;;56.67;19.90;;;5.50;89.40;;;;;;4991302;28;20026;-91
2022/01/15 13:00:51;;;;;;;72.60;21.50;;;5.50;89.40;;;;;;5013470;28;20036;-91
2022/01/15 13:03:25;;;;;;;71.82;22.50;;;5.40;89.30;;;;;;4959218;28;20034;-91
2022/01/15 13:05:58;;;;;;;79.28;22.50;;;5.40;89.30;;;;;;4990919;28;20113;-91